Ellensburg, WA

5:43 AM PST on January 26, 2015 (GMT -0800)
Ellensburg WA | Change Station
CLOSE
Current Station
Personal Weather Station
Location: Ellensburg, WA
Elevation: 1541 ft
Nearby Weather Stations
Active Advisory: Dense Fog Advisory Active Notice: Record Report

Elev 1541 ft 47.00 °N, 120.55 °W | Updated 7 minutes ago

Fog
Fog
32.8 °F
Feels Like 33 °F
N
1.0
Wind Variable Wind from West
Gusts 2.0 mph

Today
High -- | Low -- °F
--% Chance of Precip.
Yesterday
High -- | Low -- °F
Precip. -- in
7:34 AM 4:55 PM
Waxing Crescent, 43% visible
Pressure 30.11 in
Visibility 0.2 miles
Clouds
Windchill 33 °F
Dew Point 33 °F
Humidity 99%
Rainfall 0.00 in
Snow Depth Not available.
UV Not available.
Pollen 4.90 out of 12
Air Quality Not available.
Flu Activity Not available.
METAR KELN 261253Z AUTO 00000KT 1/4SM FG VV002 01/00 A3007 RMK AO2 SLP194 T00110000

More Conditions Fewer Conditions

Pressure 30.11 in
Visibility 0.2 miles
Clouds
Windchill 33 °F
Dew Point 33 °F
Humidity 99%
Rainfall 0.00 in
Snow Depth Not available.
UV Not available.
Pollen 4.90 out of 12
Air Quality Not available.
Flu Activity Not available.
METAR KELN 261253Z AUTO 00000KT 1/4SM FG VV002 01/00 A3007 RMK AO2 SLP194 T00110000

More Conditions Fewer Conditions

10-Day Weather Forecast

Almanac

Astronomy

Jan. 26, 2015 Rise Set
Actual Time
Civil Twilight
Nautical Twilight
Astronomical Twilight
Moon
Length of Visible Light
Length of Day
Tomorrow will be .
, % of the Moon is Illuminated

Today's Extremes

State Highs State Lows

Community

WunderPhotos

Upload Photos

1,790,200 photos uploaded!

WunderBlogs® & News

Nearby

Air Quality

  Air Quality AQ Index Pollutant
Not available.

Snow Depth

Station Depth Elevation

Earthquake Activity

City Distance Mag. Time & Date
Minimum magnitude displayed is 2.5.

Coastal Water Temperatures

Place Temperature

Nearby Weather Stations